Texas — KTEO — position and weather

sailwx.info

Track history (hours):
 
Tides and Currents Weather Stations Pressure Air Temp Water Temp Dewpoint Dewpoint Depression Visibility Wind Speed Wind Dir Waves Ship Positions

Texas

Owner: Crowley Petroleum Services, Inc., Jacksonville, FL. More information available from US FCC via Universal Licensing System and Coast Guard Vessel Documentation Center.

Last reported at 2017-Dec-15 18:29 UTC. Time now 2017-Dec-16 13:11 UTC.
Position N 26°52' W 079°49'.

Length 183 m; draft 10 m.

Type: Tanker. MMSI: 369037000.

Date/timePositionNaut miles runAvg speedWind from/ knotsBaromVisibWave heightAir tempDewpointWater temp
2017-Dec-15 18:29N 26°52' W 079°49'816.9
2017-Dec-15 18:00N 26°44' W 079°50'917.0
2017-Dec-15 17:30N 26°36' W 079°51'916.9
2017-Dec-15 17:00N 26°27' W 079°52'916.9
2017-Dec-15 16:30N 26°19' W 079°53'817.0
2017-Dec-15 16:00N 26°11' W 079°54'816.8
2017-Dec-15 15:30N 26°02' W 079°55'816.7
2017-Dec-15 15:00N 25°54' W 079°56'816.7
2017-Dec-15 14:30N 25°46' W 079°57'816.3
2017-Dec-15 14:00N 25°38' W 079°57'816.1
2017-Dec-15 13:30N 25°30' W 079°58'816.1
2017-Dec-15 13:00N 25°22' W 079°60'197 6.2
2017-Dec-14 05:31N 27°41' W 082°35'012.6
2017-Dec-14 05:30N 27°41' W 082°34'611.8
2017-Dec-14 05:00N 27°46' W 082°31'611.1
2017-Dec-14 04:30N 27°50' W 082°27'4 9.1
2017-Dec-14 04:00N 27°55' W 082°27'0 0.9
2017-Dec-14 03:30N 27°55' W 082°27'0 0.0
2017-Dec-14 02:59N 27°55' W 082°27'0 0.0
2017-Dec-14 02:29N 27°55' W 082°27'0 0.0
2017-Dec-14 01:59N 27°55' W 082°27'0 0.0
2017-Dec-14 01:29N 27°55' W 082°27'0 0.0
2017-Dec-14 00:59N 27°55' W 082°27'0 0.0
2017-Dec-14 00:29N 27°55' W 082°27'0 0.0
2017-Dec-13 23:59N 27°55' W 082°27'0 0.0
2017-Dec-13 23:29N 27°55' W 082°27'0 0.0
2017-Dec-13 22:59N 27°55' W 082°27'0 0.0
2017-Dec-13 22:29N 27°55' W 082°27'0 0.0
2017-Dec-13 21:56N 27°55' W 082°27'0 0.0
2017-Dec-13 21:29N 27°55' W 082°27'0 0.0
2017-Dec-13 20:59N 27°55' W 082°27'0 0.0
2017-Dec-13 20:26N 27°55' W 082°27'0 0.0
2017-Dec-13 19:59N 27°55' W 082°27'0 0.0
2017-Dec-13 19:29N 27°55' W 082°27'0 0.0
2017-Dec-13 18:59N 27°55' W 082°27'0 0.0
2017-Dec-13 18:29N 27°55' W 082°27'0 0.0
2017-Dec-13 17:59N 27°55' W 082°27'0 0.0
2017-Dec-13 17:29N 27°55' W 082°27'0 0.0
2017-Dec-13 16:59N 27°55' W 082°27'0 0.0
2017-Dec-13 16:29N 27°55' W 082°27'0 0.0
2017-Dec-13 15:59N 27°55' W 082°27'0 0.0
2017-Dec-13 15:17N 27°55' W 082°27'0 0.0
2017-Dec-13 14:59N 27°55' W 082°27'0 0.0
2017-Dec-13 14:29N 27°55' W 082°27'0 0.0
2017-Dec-13 13:59N 27°55' W 082°27'0 0.0
2017-Dec-13 13:29N 27°55' W 082°27'0 0.0
2017-Dec-13 12:59N 27°55' W 082°27'0 0.0
2017-Dec-13 12:29N 27°55' W 082°27'0 0.0
2017-Dec-13 11:59N 27°55' W 082°27'0 0.0
2017-Dec-13 11:23N 27°55' W 082°27'0 0.0
2017-Dec-13 10:59N 27°55' W 082°27'0 0.0
2017-Dec-13 10:29N 27°55' W 082°27'0 0.0
2017-Dec-13 09:59N 27°55' W 082°27'0 0.0
2017-Dec-13 09:29N 27°55' W 082°27'0 0.0
2017-Dec-13 08:59N 27°55' W 082°27'0 0.0
2017-Dec-13 08:29N 27°55' W 082°27'0 0.0
2017-Dec-13 08:00N 27°55' W 082°27'0 0.1
2017-Dec-13 07:30N 27°55' W 082°27'1 1.9
2017-Dec-13 07:00N 27°54' W 082°26'4 8.2
2017-Dec-13 06:30N 27°50' W 082°27'510.3
2017-Dec-13 06:00N 27°47' W 082°31'510.7
2017-Dec-13 05:30N 27°42' W 082°33'610.7
2017-Dec-13 04:58N 27°38' W 082°38'510.9
2017-Dec-13 04:28N 27°36' W 082°44'60012.1
2017-Dec-11 03:03N 29°44' W 093°52'1 8.0
2017-Dec-11 02:59N 29°44' W 093°52'4 7.7
2017-Dec-11 02:31N 29°46' W 093°56'13 6.4
2017-Dec-11 00:29N 29°59' W 093°52'  
Track history (hours):
 
Tides and Currents Weather Stations Pressure Air Temp Water Temp Dewpoint Dewpoint Depression Visibility Wind Speed Wind Dir Waves Ship Positions

Texas

Owner: Crowley Petroleum Services, Inc., Jacksonville, FL. More information available from US FCC via Universal Licensing System and Coast Guard Vessel Documentation Center.

Last reported at 2017-Dec-15 18:29 UTC. Time now 2017-Dec-16 13:11 UTC.
Position N 26°52' W 079°49'.

Length 183 m; draft 10 m.

Type: Tanker. MMSI: 369037000.

Date/timePositionNaut miles runAvg speedWind from/ knotsBaromVisibWave heightAir tempDewpointWater temp
2017-Dec-15 18:29N 26°52' W 079°49'816.9
2017-Dec-15 18:00N 26°44' W 079°50'917.0
2017-Dec-15 17:30N 26°36' W 079°51'916.9
2017-Dec-15 17:00N 26°27' W 079°52'916.9
2017-Dec-15 16:30N 26°19' W 079°53'817.0
2017-Dec-15 16:00N 26°11' W 079°54'816.8
2017-Dec-15 15:30N 26°02' W 079°55'816.7
2017-Dec-15 15:00N 25°54' W 079°56'816.7
2017-Dec-15 14:30N 25°46' W 079°57'816.3
2017-Dec-15 14:00N 25°38' W 079°57'816.1
2017-Dec-15 13:30N 25°30' W 079°58'816.1
2017-Dec-15 13:00N 25°22' W 079°60'197 6.2
2017-Dec-14 05:31N 27°41' W 082°35'012.6
2017-Dec-14 05:30N 27°41' W 082°34'611.8
2017-Dec-14 05:00N 27°46' W 082°31'611.1
2017-Dec-14 04:30N 27°50' W 082°27'4 9.1
2017-Dec-14 04:00N 27°55' W 082°27'0 0.9
2017-Dec-14 03:30N 27°55' W 082°27'0 0.0
2017-Dec-14 02:59N 27°55' W 082°27'0 0.0
2017-Dec-14 02:29N 27°55' W 082°27'0 0.0
2017-Dec-14 01:59N 27°55' W 082°27'0 0.0
2017-Dec-14 01:29N 27°55' W 082°27'0 0.0
2017-Dec-14 00:59N 27°55' W 082°27'0 0.0
2017-Dec-14 00:29N 27°55' W 082°27'0 0.0
2017-Dec-13 23:59N 27°55' W 082°27'0 0.0
2017-Dec-13 23:29N 27°55' W 082°27'0 0.0
2017-Dec-13 22:59N 27°55' W 082°27'0 0.0
2017-Dec-13 22:29N 27°55' W 082°27'0 0.0
2017-Dec-13 21:56N 27°55' W 082°27'0 0.0
2017-Dec-13 21:29N 27°55' W 082°27'0 0.0
2017-Dec-13 20:59N 27°55' W 082°27'0 0.0
2017-Dec-13 20:26N 27°55' W 082°27'0 0.0
2017-Dec-13 19:59N 27°55' W 082°27'0 0.0
2017-Dec-13 19:29N 27°55' W 082°27'0 0.0
2017-Dec-13 18:59N 27°55' W 082°27'0 0.0
2017-Dec-13 18:29N 27°55' W 082°27'0 0.0
2017-Dec-13 17:59N 27°55' W 082°27'0 0.0
2017-Dec-13 17:29N 27°55' W 082°27'0 0.0
2017-Dec-13 16:59N 27°55' W 082°27'0 0.0
2017-Dec-13 16:29N 27°55' W 082°27'0 0.0
2017-Dec-13 15:59N 27°55' W 082°27'0 0.0
2017-Dec-13 15:17N 27°55' W 082°27'0 0.0
2017-Dec-13 14:59N 27°55' W 082°27'0 0.0
2017-Dec-13 14:29N 27°55' W 082°27'0 0.0
2017-Dec-13 13:59N 27°55' W 082°27'0 0.0
2017-Dec-13 13:29N 27°55' W 082°27'0 0.0
2017-Dec-13 12:59N 27°55' W 082°27'0 0.0
2017-Dec-13 12:29N 27°55' W 082°27'0 0.0
2017-Dec-13 11:59N 27°55' W 082°27'0 0.0
2017-Dec-13 11:23N 27°55' W 082°27'0 0.0
2017-Dec-13 10:59N 27°55' W 082°27'0 0.0
2017-Dec-13 10:29N 27°55' W 082°27'0 0.0
2017-Dec-13 09:59N 27°55' W 082°27'0 0.0
2017-Dec-13 09:29N 27°55' W 082°27'0 0.0
2017-Dec-13 08:59N 27°55' W 082°27'0 0.0
2017-Dec-13 08:29N 27°55' W 082°27'0 0.0
2017-Dec-13 08:00N 27°55' W 082°27'0 0.1
2017-Dec-13 07:30N 27°55' W 082°27'1 1.9
2017-Dec-13 07:00N 27°54' W 082°26'4 8.2
2017-Dec-13 06:30N 27°50' W 082°27'510.3
2017-Dec-13 06:00N 27°47' W 082°31'510.7
2017-Dec-13 05:30N 27°42' W 082°33'610.7
2017-Dec-13 04:58N 27°38' W 082°38'510.9
2017-Dec-13 04:28N 27°36' W 082°44'60012.1
2017-Dec-11 03:03N 29°44' W 093°52'1 8.0
2017-Dec-11 02:59N 29°44' W 093°52'4 7.7
2017-Dec-11 02:31N 29°46' W 093°56'13 6.4
2017-Dec-11 00:29N 29°59' W 093°52'  

Dump ship's entire track history